Aeroporto :
LOGIN :

Iscrizione | Disclaimer

   EN    FR    IT 

 










Sommario :    VFR   VFR Marginale   IFR   IFR Intensivo   IFR Molto Intensivo
Visibilità : 
Base nubi : 
>= 8 km
>= 3000ft
5 / 8 km
1000 / 3000 ft
1500m / 5 km
500 / 1000 ft
800 / 1500m
200 / 500 ft
< 800m
< 200 ft
Simboli :   Temporali  Nebbia  Neve Forte  Precipitazioni Forti  Vento > 20 kt
SIGMETs :   Varie  Temporali  Ghiacco  Turbolenza  Onda orograficha  Ceneri Vulcaniche






- Altitudine del aeroporto : 160 ft
- Codice IATA : LRT


LFRH - Lorient Lann Bihoue

ULTIMO METAR :
  • 160800Z AUTO VRB01KT 9999 FEW023/// BKN030/// BKN036/// ///TCU 08/07 Q1001 TEMPO VRB15G30KT 4000 SHRA SCT015CB BKN020TCU

METARs OBSOLETI :
  • 160730Z AUTO 11005KT 8000 FEW014 BKN022 BKN036 08/07 Q1001 TEMPO VRB15G30KT 4000 SHRA SCT015CB BKN020TCU
  • 160700Z AUTO 04003KT 6000 -RA FEW016/// SCT026/// BKN041/// ///TCU 08/07 Q1001 TEMPO VRB15G30KT 4000 SHRA SCT015CB BKN020TCU
  • 160630Z AUTO 13004KT 100V160 9999 FEW027/// SCT039/// BKN046/// ///CB 08/07 Q1001 TEMPO VRB15G30KT 4000 SHRA
  • 160600Z AUTO VRB03KT 8000 -RA FEW028/// BKN047/// BKN056/// ///CB 08/07 Q1001 TEMPO VRB15G30KT 4000 SHRA
  • 160530Z AUTO 01003KT 9999 ///TCU 08/06 Q1001 TEMPO VRB15G30KT 4000 SHRA SCT015CB BKN020TCU

TAF TAF LFRH
Valido dal 16 a 06 ore il 17 a 06 ore UTC


160500Z 1606/1706 23012KT 9999 BKN020 OVC040
TEMPO 1606/1612 VRB15G30KT 4000 SHRA SCT015CB BKN020TCU
BECMG 1608/1611 13005KT
TEMPO 1612/1706 VRB15G25KT 4900 SHRA BKN020TCU
BECMG 1618/1621 07008KT BKN025



MetMap, La meteo Aeronautica in un colpo d'occhio ! - Copyright ORBIFLY Dicembre 2007 - Disclaimer

ORBIFLY MET'MAP TEAM :

Programmazione e sviluppo : Alexandra Zaïnal
Concezione : Baudouin d'Aumeries
Aiuto per la programmazione : Marc-Olivier Méhu
Supporto tecnico e logistico : Manuel Goepfert
Aiuto per la traduzione : Arnaldo La Scala

Contatto : metmap@orbifly.com




FONTI E CREDITI :

   NOAA